Time;durP1;ratioP1;P1;durP2;ratioP2;P2;SDS_P1;SDS_P2;PMS_P1;PMS_P2;Temp;Humidity;BMP_temperature;BMP_pressure;BME280_temperature;BME280_humidity;BME280_pressure;Samples;Min_cycle;Max_cycle;Signal;HPM_P1;HPM_P2
2023/05/29 00:00:37;;;;;;;19.83;4.30;;;;;;;;;;5012830;28;20232;-59
2023/05/29 00:03:04;;;;;;;22.35;4.00;;;;;;;;;;5011646;28;20299;-58
2023/05/29 00:05:30;;;;;;;17.63;4.03;;;;;;;;;;5012938;28;20636;-59
2023/05/29 00:07:55;;;;;;;20.90;4.13;;;;;;;;;;5012847;28;20231;-59
2023/05/29 00:10:20;;;;;;;19.25;4.20;;;;;;;;;;5011531;28;20608;-58
2023/05/29 00:12:46;;;;;;;20.15;4.70;;;;;;;;;;5012587;28;20208;-59
2023/05/29 00:15:12;;;;;;;20.13;3.92;;;;;;;;;;5012020;28;20717;-59
2023/05/29 00:17:37;;;;;;;22.60;4.05;;;;;;;;;;5011997;28;20204;-59
2023/05/29 00:20:07;;;;;;;19.17;3.83;;;;;;;;;;5012344;28;20250;-59
2023/05/29 00:22:32;;;;;;;21.52;4.13;;;;;;;;;;5012180;28;20664;-59
2023/05/29 00:24:57;;;;;;;22.67;3.83;;;;;;;;;;5012409;28;20235;-59
2023/05/29 00:27:22;;;;;;;21.27;4.25;;;;;;;;;;5011996;28;20367;-59
2023/05/29 00:29:48;;;;;;;19.42;3.90;;;;;;;;;;5011549;28;20571;-59
2023/05/29 00:32:13;;;;;;;19.73;3.97;;;;;;;;;;5012198;28;20219;-59
2023/05/29 00:34:38;;;;;;;21.80;3.88;;;;;;;;;;5012346;28;20220;-58
2023/05/29 00:37:04;;;;;;;19.52;4.07;;;;;;;;;;5011446;28;20267;-59
2023/05/29 00:39:29;;;;;;;23.48;4.55;;;;;;;;;;5012412;28;20254;-59
2023/05/29 00:41:54;;;;;;;21.10;3.88;;;;;;;;;;5012535;28;20212;-59
2023/05/29 00:44:20;;;;;;;20.73;4.18;;;;;;;;;;5010756;28;20231;-59
2023/05/29 00:46:45;;;;;;;21.25;3.90;;;;;;;;;;5012593;28;20727;-59
2023/05/29 00:49:11;;;;;;;20.27;3.50;;;;;;;;;;5010601;28;20216;-59
2023/05/29 00:51:36;;;;;;;19.83;3.75;;;;;;;;;;5011489;28;20232;-59
2023/05/29 00:54:02;;;;;;;21.58;4.05;;;;;;;;;;5015888;28;20212;-59
2023/05/29 00:56:27;;;;;;;24.77;4.10;;;;;;;;;;5016237;28;20208;-58
2023/05/29 00:58:52;;;;;;;20.88;3.97;;;;;;;;;;5013961;28;20215;-59
2023/05/29 01:01:18;;;;;;;17.42;3.88;;;;;;;;;;5015447;28;20330;-59
2023/05/29 01:03:43;;;;;;;19.98;3.70;;;;;;;;;;5014844;28;20228;-58
2023/05/29 01:06:10;;;;;;;19.20;3.72;;;;;;;;;;5014880;28;20219;-58
2023/05/29 01:08:35;;;;;;;22.75;3.88;;;;;;;;;;5015991;28;20216;-58
2023/05/29 01:11:04;;;;;;;20.33;3.72;;;;;;;;;;5015481;28;20583;-58
2023/05/29 01:13:30;;;;;;;22.35;3.58;;;;;;;;;;5014022;28;20243;-59
2023/05/29 01:15:56;;;;;;;18.38;3.42;;;;;;;;;;5015588;28;20299;-59
2023/05/29 01:18:23;;;;;;;21.67;3.78;;;;;;;;;;5015630;28;20227;-59
2023/05/29 01:20:58;;;;;;;23.33;4.25;;;;;;;;;;5013675;28;20631;-59
2023/05/29 01:23:37;;;;;;;17.92;4.00;;;;;;;;;;5014206;28;20230;-59
2023/05/29 01:26:07;;;;;;;16.02;3.15;;;;;;;;;;5014138;28;20655;-58
2023/05/29 01:28:33;;;;;;;19.17;3.88;;;;;;;;;;5014475;28;20220;-58
2023/05/29 01:30:59;;;;;;;21.05;3.85;;;;;;;;;;5013977;28;20205;-59
2023/05/29 01:33:26;;;;;;;17.42;3.35;;;;;;;;;;5013195;28;20212;-58
2023/05/29 01:35:51;;;;;;;17.35;3.38;;;;;;;;;;5015484;28;20243;-59
2023/05/29 01:38:16;;;;;;;20.08;3.90;;;;;;;;;;5015146;28;20232;-59
2023/05/29 01:40:41;;;;;;;19.30;3.42;;;;;;;;;;5014481;28;20212;-58
2023/05/29 01:43:07;;;;;;;22.73;4.18;;;;;;;;;;5015153;28;20212;-58
2023/05/29 01:45:32;;;;;;;20.90;4.07;;;;;;;;;;5013720;28;20258;-59
2023/05/29 01:47:57;;;;;;;22.60;3.80;;;;;;;;;;5013343;28;20221;-59
2023/05/29 01:50:22;;;;;;;22.08;3.95;;;;;;;;;;5013334;28;20292;-58
2023/05/29 01:52:48;;;;;;;21.60;3.67;;;;;;;;;;5015248;28;20212;-59
2023/05/29 01:55:13;;;;;;;18.73;3.90;;;;;;;;;;5013737;28;20200;-58
2023/05/29 01:57:38;;;;;;;23.67;3.88;;;;;;;;;;5015012;28;20675;-59
2023/05/29 02:00:08;;;;;;;19.60;3.95;;;;;;;;;;5014514;28;20248;-58
2023/05/29 02:02:38;;;;;;;20.00;4.50;;;;;;;;;;5014247;28;20739;-59
2023/05/29 02:05:04;;;;;;;23.40;4.43;;;;;;;;;;5013451;28;20291;-58
2023/05/29 02:07:30;;;;;;;29.38;4.10;;;;;;;;;;5014888;28;20240;-59
2023/05/29 02:09:55;;;;;;;19.83;3.60;;;;;;;;;;5013978;28;20256;-58
2023/05/29 02:12:21;;;;;;;21.48;4.10;;;;;;;;;;5014397;28;20212;-58
2023/05/29 02:14:46;;;;;;;23.00;4.13;;;;;;;;;;5014724;28;20216;-58
2023/05/29 02:17:11;;;;;;;25.38;4.80;;;;;;;;;;5013547;28;20553;-59
2023/05/29 02:19:37;;;;;;;25.63;4.93;;;;;;;;;;5014456;28;20210;-58
2023/05/29 02:22:02;;;;;;;24.15;3.42;;;;;;;;;;5013494;28;20215;-58
2023/05/29 02:24:28;;;;;;;22.40;4.28;;;;;;;;;;5014670;28;20247;-59
2023/05/29 02:26:53;;;;;;;21.15;4.30;;;;;;;;;;5014443;28;20707;-59
2023/05/29 02:29:18;;;;;;;25.02;4.10;;;;;;;;;;5013422;28;20228;-58
2023/05/29 02:31:44;;;;;;;29.05;4.13;;;;;;;;;;5014274;28;20231;-58
2023/05/29 02:34:09;;;;;;;23.70;4.50;;;;;;;;;;5014126;28;20298;-58
2023/05/29 02:36:37;;;;;;;22.33;4.35;;;;;;;;;;5013682;28;20211;-58
2023/05/29 02:39:02;;;;;;;24.83;4.65;;;;;;;;;;5014150;28;20294;-58
2023/05/29 02:41:28;;;;;;;17.23;3.97;;;;;;;;;;5014330;28;20547;-58
2023/05/29 02:43:53;;;;;;;21.65;3.80;;;;;;;;;;5013386;28;20268;-58
2023/05/29 02:46:18;;;;;;;21.73;3.90;;;;;;;;;;5013707;28;20346;-58
2023/05/29 02:48:44;;;;;;;27.75;4.25;;;;;;;;;;5013877;28;20211;-59
2023/05/29 02:51:09;;;;;;;24.65;4.03;;;;;;;;;;5012831;28;20235;-59
2023/05/29 02:53:34;;;;;;;23.92;4.20;;;;;;;;;;5014013;28;20208;-59
2023/05/29 02:56:00;;;;;;;23.63;4.63;;;;;;;;;;5010989;28;20692;-59
2023/05/29 02:58:27;;;;;;;25.90;4.32;;;;;;;;;;4977586;28;20526;-59
2023/05/29 03:00:52;;;;;;;18.33;3.53;;;;;;;;;;4991306;28;20311;-59
2023/05/29 03:03:17;;;;;;;26.27;4.35;;;;;;;;;;4976186;28;20217;-59
2023/05/29 03:05:43;;;;;;;22.42;4.13;;;;;;;;;;4991271;28;20208;-59
2023/05/29 03:08:08;;;;;;;20.00;3.70;;;;;;;;;;5003490;28;20235;-58
2023/05/29 03:10:33;;;;;;;22.40;4.40;;;;;;;;;;4987698;28;20275;-59
2023/05/29 03:12:59;;;;;;;27.25;4.75;;;;;;;;;;4983871;28;20252;-59
2023/05/29 03:15:24;;;;;;;20.50;3.97;;;;;;;;;;4989455;28;20224;-59
2023/05/29 03:17:49;;;;;;;23.13;3.70;;;;;;;;;;4984440;28;20274;-58
2023/05/29 03:20:15;;;;;;;25.83;4.05;;;;;;;;;;4978866;28;20612;-59
2023/05/29 03:22:40;;;;;;;22.00;3.75;;;;;;;;;;4976081;28;20611;-58
2023/05/29 03:25:06;;;;;;;18.88;3.30;;;;;;;;;;4975345;28;20332;-59
2023/05/29 03:27:31;;;;;;;22.15;3.75;;;;;;;;;;4980149;28;20232;-59
2023/05/29 03:29:57;;;;;;;22.30;4.10;;;;;;;;;;4984164;28;20623;-58
2023/05/29 03:32:23;;;;;;;20.83;4.18;;;;;;;;;;4982543;28;20219;-59
2023/05/29 03:34:48;;;;;;;22.20;4.00;;;;;;;;;;4984269;28;20209;-59
2023/05/29 03:37:13;;;;;;;22.45;3.72;;;;;;;;;;4983224;28;20684;-58
2023/05/29 03:39:39;;;;;;;20.55;3.55;;;;;;;;;;4983597;28;20333;-59
2023/05/29 03:42:04;;;;;;;26.60;4.57;;;;;;;;;;4981072;28;20221;-58
2023/05/29 03:44:29;;;;;;;24.98;4.28;;;;;;;;;;4995395;28;20248;-59
2023/05/29 03:46:55;;;;;;;22.67;4.72;;;;;;;;;;4994424;28;20217;-59
2023/05/29 03:49:20;;;;;;;23.80;4.82;;;;;;;;;;4996715;28;20224;-58
2023/05/29 03:51:45;;;;;;;21.05;3.85;;;;;;;;;;5000592;28;20240;-59
2023/05/29 03:54:11;;;;;;;22.67;4.25;;;;;;;;;;4997546;28;20667;-58
2023/05/29 03:56:36;;;;;;;24.05;4.05;;;;;;;;;;4984319;28;20668;-59
2023/05/29 03:59:02;;;;;;;27.45;4.05;;;;;;;;;;4983653;28;20304;-58
2023/05/29 04:01:27;;;;;;;23.05;3.95;;;;;;;;;;5002081;28;20567;-59
2023/05/29 04:03:53;;;;;;;23.30;3.97;;;;;;;;;;5002287;28;20282;-58
2023/05/29 04:06:18;;;;;;;20.17;3.58;;;;;;;;;;4979810;28;20209;-58
2023/05/29 04:08:43;;;;;;;22.13;3.72;;;;;;;;;;4975126;28;20216;-59
2023/05/29 04:11:09;;;;;;;18.10;3.45;;;;;;;;;;4975470;28;20328;-58
2023/05/29 04:13:34;;;;;;;22.33;4.00;;;;;;;;;;4982529;28;20228;-59
2023/05/29 04:16:00;;;;;;;25.15;4.40;;;;;;;;;;4983067;28;20217;-59
2023/05/29 04:18:25;;;;;;;20.02;3.67;;;;;;;;;;4982675;28;20232;-58
2023/05/29 04:20:51;;;;;;;23.75;3.92;;;;;;;;;;4983450;28;20209;-59
2023/05/29 04:23:16;;;;;;;25.70;5.43;;;;;;;;;;5001184;28;20226;-58
2023/05/29 04:25:41;;;;;;;18.55;3.40;;;;;;;;;;5002735;28;21422;-59
2023/05/29 04:28:06;;;;;;;22.58;3.60;;;;;;;;;;4997120;28;20213;-58
2023/05/29 04:30:33;;;;;;;24.00;4.05;;;;;;;;;;4994158;28;20220;-59
2023/05/29 04:32:59;;;;;;;21.67;4.13;;;;;;;;;;4975557;28;20224;-59
2023/05/29 04:35:24;;;;;;;19.95;3.53;;;;;;;;;;4979095;28;20651;-59
2023/05/29 04:37:49;;;;;;;23.38;3.83;;;;;;;;;;5001624;28;20212;-58
2023/05/29 04:40:17;;;;;;;20.25;3.83;;;;;;;;;;5001852;28;20216;-59
2023/05/29 04:42:44;;;;;;;24.40;4.60;;;;;;;;;;5002015;28;20216;-59
2023/05/29 04:45:10;;;;;;;22.52;4.07;;;;;;;;;;5002050;28;20232;-59
2023/05/29 04:47:36;;;;;;;19.75;4.25;;;;;;;;;;4983259;28;20583;-59
2023/05/29 04:50:01;;;;;;;21.95;4.18;;;;;;;;;;4979504;28;20577;-59
2023/05/29 04:52:27;;;;;;;22.27;3.88;;;;;;;;;;4975487;28;20709;-58
2023/05/29 04:54:53;;;;;;;19.48;4.32;;;;;;;;;;4974974;28;20217;-59
2023/05/29 04:57:18;;;;;;;23.90;4.10;;;;;;;;;;4976132;28;20249;-58
2023/05/29 04:59:44;;;;;;;21.65;3.95;;;;;;;;;;4983179;28;20260;-59
2023/05/29 05:02:09;;;;;;;21.17;4.00;;;;;;;;;;4982695;28;20321;-59
2023/05/29 05:04:35;;;;;;;22.73;3.78;;;;;;;;;;4983272;28;20217;-59
2023/05/29 05:07:00;;;;;;;21.40;3.50;;;;;;;;;;5002370;28;20240;-59
2023/05/29 05:09:26;;;;;;;23.73;3.58;;;;;;;;;;4995430;28;20221;-59
2023/05/29 05:11:51;;;;;;;17.77;3.55;;;;;;;;;;5001522;28;21015;-59
2023/05/29 05:14:16;;;;;;;23.00;3.72;;;;;;;;;;4990862;28;20272;-59
2023/05/29 05:16:42;;;;;;;20.75;3.75;;;;;;;;;;4989096;28;20995;-59
2023/05/29 05:19:07;;;;;;;20.98;3.28;;;;;;;;;;4974062;28;20597;-58
2023/05/29 05:21:33;;;;;;;20.17;3.47;;;;;;;;;;5001012;28;20683;-59
2023/05/29 05:23:58;;;;;;;19.35;3.80;;;;;;;;;;5002370;28;20319;-59
2023/05/29 05:26:24;;;;;;;25.70;4.45;;;;;;;;;;5000703;28;20231;-58
2023/05/29 05:28:49;;;;;;;21.30;3.60;;;;;;;;;;5002329;28;20244;-59
2023/05/29 05:31:15;;;;;;;20.88;3.78;;;;;;;;;;5001328;28;20307;-59
2023/05/29 05:33:40;;;;;;;18.17;3.42;;;;;;;;;;5001481;28;20290;-59
2023/05/29 05:36:06;;;;;;;21.75;3.70;;;;;;;;;;4996531;28;20221;-57
2023/05/29 05:38:32;;;;;;;17.83;3.67;;;;;;;;;;4994276;28;20209;-59
2023/05/29 05:40:57;;;;;;;20.70;3.47;;;;;;;;;;4996688;28;20247;-59
2023/05/29 05:43:22;;;;;;;17.92;3.15;;;;;;;;;;5001771;28;20213;-59
2023/05/29 05:45:48;;;;;;;18.08;3.50;;;;;;;;;;5005555;28;20212;-59
2023/05/29 05:48:13;;;;;;;19.90;3.30;;;;;;;;;;4984849;28;20786;-63
2023/05/29 05:50:38;;;;;;;18.23;3.55;;;;;;;;;;4985866;28;20265;-63
2023/05/29 05:53:03;;;;;;;17.45;3.38;;;;;;;;;;4984980;28;20213;-63
2023/05/29 05:55:29;;;;;;;21.20;3.80;;;;;;;;;;4985767;28;20516;-63
2023/05/29 05:57:55;;;;;;;12.90;3.40;;;;;;;;;;4983337;28;20567;-62
2023/05/29 06:00:22;;;;;;;19.02;4.30;;;;;;;;;;4977155;28;20221;-63
2023/05/29 06:02:47;;;;;;;17.33;3.70;;;;;;;;;;4995726;28;20682;-62
2023/05/29 06:05:13;;;;;;;12.48;2.67;;;;;;;;;;4987398;28;20240;-63
2023/05/29 06:07:38;;;;;;;17.15;3.50;;;;;;;;;;4985694;28;20217;-62
2023/05/29 06:10:04;;;;;;;15.88;3.17;;;;;;;;;;4985345;28;20205;-63
2023/05/29 06:12:29;;;;;;;21.58;3.40;;;;;;;;;;4985613;28;20248;-63
2023/05/29 06:14:55;;;;;;;14.90;3.22;;;;;;;;;;4984992;28;20611;-63
2023/05/29 06:17:21;;;;;;;16.70;3.13;;;;;;;;;;5004123;28;20215;-63
2023/05/29 06:19:46;;;;;;;18.80;3.22;;;;;;;;;;5004244;28;20250;-63
2023/05/29 06:22:11;;;;;;;16.20;3.17;;;;;;;;;;4995783;28;20220;-62
2023/05/29 06:24:37;;;;;;;17.02;3.33;;;;;;;;;;5004511;28;20582;-63
2023/05/29 06:27:02;;;;;;;16.83;3.60;;;;;;;;;;5012979;28;20583;-63
2023/05/29 06:29:28;;;;;;;15.80;3.20;;;;;;;;;;5013399;28;20212;-63
2023/05/29 06:31:53;;;;;;;16.10;3.23;;;;;;;;;;5012880;28;20431;-63
2023/05/29 06:34:19;;;;;;;15.73;3.47;;;;;;;;;;5012601;28;20683;-61
2023/05/29 06:36:44;;;;;;;15.45;2.83;;;;;;;;;;5011549;28;20227;-61
2023/05/29 06:39:10;;;;;;;15.20;3.17;;;;;;;;;;5013616;28;20204;-61
2023/05/29 06:41:35;;;;;;;17.35;3.42;;;;;;;;;;5012800;28;20205;-62
2023/05/29 06:44:00;;;;;;;18.42;3.55;;;;;;;;;;5012978;28;20225;-61
2023/05/29 06:46:26;;;;;;;17.88;3.55;;;;;;;;;;5014336;28;20240;-62
2023/05/29 06:48:51;;;;;;;14.07;3.28;;;;;;;;;;5012810;28;20298;-62
2023/05/29 06:51:17;;;;;;;19.35;3.92;;;;;;;;;;5012325;28;20552;-63
2023/05/29 06:53:42;;;;;;;19.23;3.17;;;;;;;;;;5013662;28;20244;-62
2023/05/29 06:56:07;;;;;;;20.70;3.25;;;;;;;;;;5013553;28;20220;-60
2023/05/29 06:58:33;;;;;;;14.20;3.00;;;;;;;;;;5012933;28;20366;-60
2023/05/29 07:00:58;;;;;;;14.00;3.05;;;;;;;;;;5013935;28;20735;-60
2023/05/29 07:03:25;;;;;;;18.10;3.20;;;;;;;;;;5012409;28;20239;-61
2023/05/29 07:05:50;;;;;;;17.73;3.83;;;;;;;;;;5010325;28;20251;-60
2023/05/29 07:08:15;;;;;;;17.92;3.17;;;;;;;;;;5012578;28;20208;-60
2023/05/29 07:10:41;;;;;;;13.52;2.95;;;;;;;;;;5012478;28;20633;-62
2023/05/29 07:13:06;;;;;;;16.02;3.13;;;;;;;;;;5012573;28;20223;-61
2023/05/29 07:15:31;;;;;;;19.05;3.45;;;;;;;;;;5013037;28;20244;-61
2023/05/29 07:17:57;;;;;;;17.30;3.83;;;;;;;;;;5012387;28;20213;-61
2023/05/29 07:20:22;;;;;;;16.30;3.65;;;;;;;;;;5012660;28;20271;-62
2023/05/29 07:22:47;;;;;;;13.05;3.20;;;;;;;;;;5012507;28;20229;-62
2023/05/29 07:25:13;;;;;;;16.13;2.90;;;;;;;;;;5008659;28;20221;-62
2023/05/29 07:27:38;;;;;;;16.10;3.03;;;;;;;;;;5007132;28;20312;-62
2023/05/29 07:30:05;;;;;;;15.85;3.15;;;;;;;;;;5008712;28;20291;-61
2023/05/29 07:32:30;;;;;;;15.50;3.13;;;;;;;;;;5009139;28;20684;-62
2023/05/29 07:34:56;;;;;;;16.02;3.13;;;;;;;;;;5009687;28;20284;-62
2023/05/29 07:37:21;;;;;;;17.02;3.17;;;;;;;;;;5007494;28;20572;-61
2023/05/29 07:39:46;;;;;;;17.13;3.17;;;;;;;;;;5011738;28;20687;-61
2023/05/29 07:42:12;;;;;;;15.52;3.03;;;;;;;;;;5012527;28;20287;-61
2023/05/29 07:44:37;;;;;;;17.20;3.72;;;;;;;;;;5012531;28;20220;-63
2023/05/29 07:47:02;;;;;;;16.45;3.28;;;;;;;;;;5011699;28;20706;-63
2023/05/29 07:49:28;;;;;;;14.40;3.10;;;;;;;;;;5012953;28;20254;-64
2023/05/29 07:51:53;;;;;;;14.27;2.70;;;;;;;;;;5012865;28;20212;-64
2023/05/29 07:54:20;;;;;;;13.35;2.83;;;;;;;;;;5011534;28;20278;-64
2023/05/29 07:56:45;;;;;;;15.13;3.55;;;;;;;;;;5013174;28;20208;-64
2023/05/29 07:59:11;;;;;;;12.35;2.60;;;;;;;;;;5012438;28;20710;-63
2023/05/29 08:01:37;;;;;;;16.45;3.33;;;;;;;;;;5011429;28;20216;-64
2023/05/29 08:04:02;;;;;;;20.35;4.15;;;;;;;;;;5012197;28;20319;-63
2023/05/29 08:06:27;;;;;;;12.95;3.35;;;;;;;;;;5012920;28;20205;-65
2023/05/29 08:08:52;;;;;;;15.43;3.58;;;;;;;;;;5011985;28;20208;-64
2023/05/29 08:11:18;;;;;;;14.85;3.35;;;;;;;;;;5012311;28;20212;-64
2023/05/29 08:13:45;;;;;;;14.77;2.83;;;;;;;;;;5012048;28;20215;-64
2023/05/29 08:16:10;;;;;;;14.45;3.15;;;;;;;;;;5012086;28;20588;-64
2023/05/29 08:18:36;;;;;;;13.55;2.90;;;;;;;;;;5012706;28;20212;-65
2023/05/29 08:21:01;;;;;;;13.80;3.22;;;;;;;;;;5011606;28;20578;-64
2023/05/29 08:23:27;;;;;;;13.95;3.38;;;;;;;;;;5012492;28;20204;-65
2023/05/29 08:25:52;;;;;;;16.63;3.33;;;;;;;;;;5012209;28;20232;-64
2023/05/29 08:28:17;;;;;;;15.10;3.15;;;;;;;;;;5011440;28;20638;-65
2023/05/29 08:30:43;;;;;;;14.20;2.72;;;;;;;;;;5012457;28;20271;-64
2023/05/29 08:33:08;;;;;;;16.33;2.85;;;;;;;;;;5012158;28;20578;-64
2023/05/29 08:35:33;;;;;;;18.20;2.83;;;;;;;;;;5011558;28;20262;-65
2023/05/29 08:37:59;;;;;;;12.00;3.00;;;;;;;;;;5012227;28;20236;-64
2023/05/29 08:40:24;;;;;;;13.93;3.05;;;;;;;;;;5011596;28;20219;-64
2023/05/29 08:42:51;;;;;;;19.65;3.75;;;;;;;;;;5011756;28;20213;-65
2023/05/29 08:45:16;;;;;;;14.55;3.58;;;;;;;;;;5011837;28;20221;-64
2023/05/29 08:47:42;;;;;;;14.45;3.15;;;;;;;;;;5012431;28;20231;-65
2023/05/29 08:50:07;;;;;;;12.65;2.42;;;;;;;;;;5011080;28;20300;-64
2023/05/29 08:52:40;;;;;;;16.58;3.42;;;;;;;;;;5012201;28;20204;-65
2023/05/29 08:55:06;;;;;;;14.73;3.05;;;;;;;;;;5011663;28;20562;-64
2023/05/29 08:57:31;;;;;;;12.65;2.22;;;;;;;;;;5011648;28;20220;-64
2023/05/29 08:59:56;;;;;;;11.18;2.80;;;;;;;;;;5011988;28;20319;-65
2023/05/29 09:02:22;;;;;;;12.18;2.80;;;;;;;;;;5011690;28;20286;-65
2023/05/29 09:04:54;;;;;;;16.00;2.58;;;;;;;;;;5011226;28;20212;-65
2023/05/29 09:07:19;;;;;;;12.75;2.88;;;;;;;;;;5011744;28;20212;-65
2023/05/29 09:09:45;;;;;;;14.80;2.80;;;;;;;;;;5011961;28;20216;-65
2023/05/29 09:12:10;;;;;;;14.27;3.20;;;;;;;;;;5010942;28;20227;-64
2023/05/29 09:14:36;;;;;;;14.55;3.05;;;;;;;;;;5013788;28;20200;-65
2023/05/29 09:17:02;;;;;;;14.57;3.45;;;;;;;;;;5014670;28;20212;-64
2023/05/29 09:19:27;;;;;;;19.17;2.67;;;;;;;;;;5016015;28;20216;-65
2023/05/29 09:21:59;;;;;;;10.65;2.55;;;;;;;;;;5015674;28;20212;-65
2023/05/29 09:24:25;;;;;;;13.23;2.67;;;;;;;;;;5014529;28;20224;-65
2023/05/29 09:26:50;;;;;;;15.63;3.20;;;;;;;;;;5014056;28;20220;-65
2023/05/29 09:29:15;;;;;;;11.90;2.97;;;;;;;;;;5013956;28;20596;-65
2023/05/29 09:31:46;;;;;;;13.93;3.42;;;;;;;;;;5014746;28;20295;-65
2023/05/29 09:34:11;;;;;;;12.68;2.53;;;;;;;;;;5014055;28;20247;-64
2023/05/29 09:36:37;;;;;;;15.20;2.92;;;;;;;;;;5015259;28;20266;-65
2023/05/29 09:39:03;;;;;;;12.50;2.92;;;;;;;;;;5013031;28;20240;-64
2023/05/29 09:41:30;;;;;;;11.65;2.97;;;;;;;;;;5015203;28;20220;-65
2023/05/29 09:43:56;;;;;;;14.10;3.13;;;;;;;;;;5015367;28;20244;-65
2023/05/29 09:46:21;;;;;;;14.88;3.30;;;;;;;;;;5013996;28;20235;-65
2023/05/29 09:48:47;;;;;;;13.15;3.00;;;;;;;;;;5015395;28;20251;-65
2023/05/29 09:51:19;;;;;;;11.15;3.05;;;;;;;;;;5014841;28;20353;-65
2023/05/29 09:53:46;;;;;;;13.90;3.50;;;;;;;;;;5014165;28;20208;-65
2023/05/29 09:56:11;;;;;;;16.73;3.47;;;;;;;;;;5014285;28;20290;-64
2023/05/29 09:58:38;;;;;;;14.50;3.50;;;;;;;;;;5013771;28;20242;-65
2023/05/29 10:01:04;;;;;;;13.43;3.38;;;;;;;;;;5013850;28;20213;-64
2023/05/29 10:03:34;;;;;;;15.07;3.83;;;;;;;;;;5014982;28;20602;-65
2023/05/29 10:06:00;;;;;;;12.27;3.60;;;;;;;;;;5014717;28;20240;-65
2023/05/29 10:08:25;;;;;;;17.27;3.28;;;;;;;;;;5012465;28;20255;-65
2023/05/29 10:10:54;;;;;;;11.60;3.47;;;;;;;;;;5014663;28;20209;-65
2023/05/29 10:13:21;;;;;;;12.00;2.80;;;;;;;;;;5013683;28;20672;-65
2023/05/29 10:15:46;;;;;;;14.30;3.03;;;;;;;;;;5014741;28;20288;-65
2023/05/29 10:18:13;;;;;;;18.38;3.55;;;;;;;;;;5012878;28;20291;-64
2023/05/29 10:20:38;;;;;;;9.75;2.50;;;;;;;;;;5014124;28;20219;-66
2023/05/29 10:23:04;;;;;;;15.80;3.55;;;;;;;;;;5014119;28;20217;-65
2023/05/29 10:25:30;;;;;;;14.00;3.50;;;;;;;;;;5013426;28;20224;-65
2023/05/29 10:27:55;;;;;;;12.82;2.95;;;;;;;;;;5013553;28;20220;-65
2023/05/29 10:30:23;;;;;;;13.15;3.50;;;;;;;;;;5012962;28;20207;-65
2023/05/29 10:32:56;;;;;;;15.18;3.13;;;;;;;;;;5013078;28;20204;-65
2023/05/29 10:35:21;;;;;;;15.57;3.22;;;;;;;;;;5011880;28;20219;-65
2023/05/29 10:37:54;;;;;;;15.85;2.97;;;;;;;;;;5014199;28;20208;-66
2023/05/29 10:40:22;;;;;;;13.95;2.90;;;;;;;;;;5013813;28;20227;-64
2023/05/29 10:42:49;;;;;;;12.88;2.67;;;;;;;;;;5013282;28;20201;-65
2023/05/29 10:45:29;;;;;;;12.93;3.13;;;;;;;;;;5013725;28;20236;-65
2023/05/29 10:47:55;;;;;;;11.23;2.92;;;;;;;;;;5014091;28;20227;-65
2023/05/29 10:50:36;;;;;;;12.40;2.90;;;;;;;;;;5012962;28;20828;-65
2023/05/29 10:53:02;;;;;;;13.73;3.22;;;;;;;;;;5013428;28;20220;-64
2023/05/29 10:55:35;;;;;;;10.57;3.30;;;;;;;;;;5013073;28;20220;-66
2023/05/29 10:58:04;;;;;;;15.05;2.90;;;;;;;;;;5013412;28;20674;-62
2023/05/29 11:00:29;;;;;;;12.32;3.25;;;;;;;;;;5013922;28;20284;-66
2023/05/29 11:02:55;;;;;;;13.75;2.90;;;;;;;;;;5011690;28;20666;-66
2023/05/29 11:05:21;;;;;;;15.88;3.47;;;;;;;;;;5013143;28;20224;-65
2023/05/29 11:07:54;;;;;;;13.25;3.42;;;;;;;;;;5013820;28;20208;-65
2023/05/29 11:10:39;;;;;;;12.23;3.40;;;;;;;;;;5012534;28;20213;-66
2023/05/29 11:13:07;;;;;;;13.27;3.13;;;;;;;;;;5012885;28;20740;-64
2023/05/29 11:15:32;;;;;;;12.52;3.25;;;;;;;;;;5013511;28;20679;-65
2023/05/29 11:18:05;;;;;;;10.93;2.88;;;;;;;;;;5012929;28;20236;-65
2023/05/29 11:20:43;;;;;;;10.75;3.00;;;;;;;;;;5013319;28;20577;-65
2023/05/29 11:23:09;;;;;;;12.50;3.30;;;;;;;;;;5013099;28;20216;-65
2023/05/29 11:25:36;;;;;;;11.95;2.72;;;;;;;;;;5011263;28;20278;-66
2023/05/29 11:28:04;;;;;;;12.20;2.65;;;;;;;;;;5012643;28;20216;-66
2023/05/29 11:30:30;;;;;;;14.95;3.13;;;;;;;;;;5013400;28;20208;-65
2023/05/29 11:32:56;;;;;;;12.13;2.95;;;;;;;;;;5011309;28;20311;-66
2023/05/29 11:35:22;;;;;;;15.40;2.95;;;;;;;;;;5011650;28;20667;-65
2023/05/29 11:37:47;;;;;;;14.30;3.60;;;;;;;;;;5012345;28;20227;-65
2023/05/29 11:40:13;;;;;;;14.80;3.72;;;;;;;;;;5012732;28;20209;-65
2023/05/29 11:42:45;;;;;;;15.02;3.35;;;;;;;;;;5013122;28;20209;-65
2023/05/29 11:45:11;;;;;;;15.63;4.13;;;;;;;;;;5011620;28;20331;-65
2023/05/29 11:47:55;;;;;;;11.75;3.08;;;;;;;;;;5013361;28;20643;-65
2023/05/29 11:50:21;;;;;;;13.73;3.25;;;;;;;;;;5012569;28;20236;-65
2023/05/29 11:52:46;;;;;;;13.73;3.47;;;;;;;;;;5011064;28;20218;-65
2023/05/29 11:55:12;;;;;;;15.50;3.53;;;;;;;;;;5012275;28;20308;-65
2023/05/29 11:57:37;;;;;;;12.93;3.22;;;;;;;;;;5012858;28;20312;-65
2023/05/29 12:00:09;;;;;;;15.30;3.28;;;;;;;;;;5011411;28;20208;-64
2023/05/29 12:02:35;;;;;;;13.68;3.40;;;;;;;;;;5012806;28;20244;-65
2023/05/29 12:05:02;;;;;;;15.20;3.35;;;;;;;;;;5012063;28;20638;-65
2023/05/29 12:07:28;;;;;;;11.65;3.17;;;;;;;;;;5012176;28;20212;-65
2023/05/29 12:09:57;;;;;;;15.50;3.30;;;;;;;;;;5012807;28;20644;-65
2023/05/29 12:12:23;;;;;;;13.60;3.47;;;;;;;;;;5012111;28;20285;-65
2023/05/29 12:14:50;;;;;;;16.52;3.33;;;;;;;;;;5011824;28;20687;-65
2023/05/29 12:17:16;;;;;;;16.52;3.60;;;;;;;;;;5012239;28;20216;-65
2023/05/29 12:19:41;;;;;;;12.93;3.22;;;;;;;;;;5011409;28;20208;-66
2023/05/29 12:22:06;;;;;;;14.77;3.40;;;;;;;;;;5011270;28;20236;-65
2023/05/29 12:24:31;;;;;;;13.95;3.92;;;;;;;;;;5012595;28;20220;-66
2023/05/29 12:26:57;;;;;;;18.35;3.95;;;;;;;;;;5011653;28;20241;-66
2023/05/29 12:29:29;;;;;;;15.13;3.38;;;;;;;;;;5010448;28;20219;-66
2023/05/29 12:31:58;;;;;;;14.77;3.80;;;;;;;;;;5012406;28;20224;-66
2023/05/29 12:34:24;;;;;;;13.73;3.03;;;;;;;;;;5011126;28;20208;-66
2023/05/29 12:36:49;;;;;;;13.10;3.22;;;;;;;;;;5012173;28;20204;-66
2023/05/29 12:39:14;;;;;;;12.30;3.25;;;;;;;;;;5012086;28;20311;-65
2023/05/29 12:41:40;;;;;;;14.45;3.33;;;;;;;;;;5011403;28;20212;-65
2023/05/29 12:44:05;;;;;;;13.00;2.70;;;;;;;;;;5011748;28;20598;-65
2023/05/29 12:46:35;;;;;;;10.40;2.95;;;;;;;;;;5012293;28;20694;-65
2023/05/29 12:49:10;;;;;;;12.52;3.45;;;;;;;;;;5013576;28;20216;-64
2023/05/29 12:51:36;;;;;;;13.07;3.40;;;;;;;;;;5016225;28;20216;-65
2023/05/29 12:54:02;;;;;;;13.27;3.60;;;;;;;;;;5014555;28;20228;-64
2023/05/29 12:56:27;;;;;;;10.60;3.00;;;;;;;;;;5015297;28;20215;-65
2023/05/29 12:58:52;;;;;;;13.55;3.35;;;;;;;;;;5016220;28;20216;-65
2023/05/29 13:01:18;;;;;;;13.27;3.72;;;;;;;;;;5015343;28;20231;-65
2023/05/29 13:03:43;;;;;;;14.23;3.08;;;;;;;;;;5014132;28;20216;-65
2023/05/29 13:06:09;;;;;;;13.32;3.08;;;;;;;;;;5015464;28;20220;-65
2023/05/29 13:08:35;;;;;;;14.32;3.42;;;;;;;;;;5014965;28;20702;-66
2023/05/29 13:11:00;;;;;;;16.85;3.75;;;;;;;;;;5015227;28;20216;-65
2023/05/29 13:13:25;;;;;;;13.80;3.08;;;;;;;;;;5015513;28;20207;-66
2023/05/29 13:15:51;;;;;;;14.98;3.80;;;;;;;;;;5015577;28;20244;-66
2023/05/29 13:18:16;;;;;;;13.82;3.15;;;;;;;;;;5014653;28;20219;-65
2023/05/29 13:20:41;;;;;;;14.82;3.47;;;;;;;;;;5015837;28;20232;-66
2023/05/29 13:23:08;;;;;;;12.38;3.20;;;;;;;;;;5015033;28;20270;-65
2023/05/29 13:25:34;;;;;;;14.25;3.15;;;;;;;;;;5015674;28;20240;-66
2023/05/29 13:27:59;;;;;;;16.52;3.30;;;;;;;;;;5015658;28;20255;-66
2023/05/29 13:30:24;;;;;;;13.80;3.13;;;;;;;;;;5014305;28;20232;-65
2023/05/29 13:32:50;;;;;;;11.32;3.20;;;;;;;;;;5015291;28;20668;-66
2023/05/29 13:35:16;;;;;;;15.82;3.47;;;;;;;;;;5014950;28;20220;-65
2023/05/29 13:37:43;;;;;;;13.68;3.03;;;;;;;;;;5014623;28;20212;-66
2023/05/29 13:40:09;;;;;;;11.75;3.05;;;;;;;;;;5015031;28;20208;-65
2023/05/29 13:42:34;;;;;;;12.50;3.10;;;;;;;;;;5015288;28;20581;-66
2023/05/29 13:44:59;;;;;;;13.55;3.42;;;;;;;;;;5014448;28;20239;-65
2023/05/29 13:47:28;;;;;;;12.13;3.17;;;;;;;;;;5014687;28;20215;-65
2023/05/29 13:49:54;;;;;;;13.70;2.83;;;;;;;;;;5015418;28;20216;-65
2023/05/29 13:52:19;;;;;;;12.55;2.78;;;;;;;;;;5013767;28;20208;-65
2023/05/29 13:54:44;;;;;;;9.88;2.80;;;;;;;;;;5015280;28;20209;-66
2023/05/29 13:57:09;;;;;;;14.23;3.00;;;;;;;;;;5011665;28;20208;-66
2023/05/29 13:59:35;;;;;;;11.50;3.00;;;;;;;;;;4989717;28;20607;-66
2023/05/29 14:02:00;;;;;;;12.50;3.38;;;;;;;;;;4985404;28;20220;-63
2023/05/29 14:04:26;;;;;;;16.92;3.15;;;;;;;;;;5001893;28;20224;-66
2023/05/29 14:06:51;;;;;;;10.98;2.70;;;;;;;;;;4999192;28;20217;-66
2023/05/29 14:09:22;;;;;;;12.02;2.70;;;;;;;;;;4989397;28;20608;-66
2023/05/29 14:11:47;;;;;;;10.82;2.72;;;;;;;;;;5008059;28;20572;-66
2023/05/29 14:14:12;;;;;;;14.38;3.58;;;;;;;;;;5005113;28;20217;-66
2023/05/29 14:16:38;;;;;;;13.95;3.35;;;;;;;;;;5007082;28;20213;-66
2023/05/29 14:19:03;;;;;;;11.20;2.90;;;;;;;;;;5007774;28;20259;-65
2023/05/29 14:21:28;;;;;;;14.98;3.15;;;;;;;;;;5001977;28;20270;-65
2023/05/29 14:23:54;;;;;;;18.05;3.80;;;;;;;;;;5000213;28;20460;-66